sensor_id;sensor_type;location;lat;lon;timestamp;temperature;humidity
39847;DHT22;25517;52.422;10.782;2022-10-16T00:00:43;15.50;99.90
39847;DHT22;25517;52.422;10.782;2022-10-16T00:03:10;15.40;99.90
39847;DHT22;25517;52.422;10.782;2022-10-16T00:05:43;15.40;99.90
39847;DHT22;25517;52.422;10.782;2022-10-16T00:08:12;15.30;99.90
39847;DHT22;25517;52.422;10.782;2022-10-16T00:10:38;15.30;99.90
39847;DHT22;25517;52.422;10.782;2022-10-16T00:13:05;15.30;99.90
39847;DHT22;25517;52.422;10.782;2022-10-16T00:15:33;15.20;99.90
39847;DHT22;25517;52.422;10.782;2022-10-16T00:18:01;15.20;99.90
39847;DHT22;25517;52.422;10.782;2022-10-16T00:20:26;15.20;99.90
39847;DHT22;25517;52.422;10.782;2022-10-16T00:22:52;15.20;99.90
39847;DHT22;25517;52.422;10.782;2022-10-16T00:25:17;15.10;99.90
39847;DHT22;25517;52.422;10.782;2022-10-16T00:27:43;15.10;99.90
39847;DHT22;25517;52.422;10.782;2022-10-16T00:30:08;15.10;99.90
39847;DHT22;25517;52.422;10.782;2022-10-16T00:32:34;15.00;99.90
39847;DHT22;25517;52.422;10.782;2022-10-16T00:34:59;14.90;99.90
39847;DHT22;25517;52.422;10.782;2022-10-16T00:37:25;14.90;99.90
39847;DHT22;25517;52.422;10.782;2022-10-16T00:39:51;14.80;99.90
39847;DHT22;25517;52.422;10.782;2022-10-16T00:42:17;14.70;99.90
39847;DHT22;25517;52.422;10.782;2022-10-16T00:44:56;14.70;99.90
39847;DHT22;25517;52.422;10.782;2022-10-16T00:47:38;14.70;99.90
39847;DHT22;25517;52.422;10.782;2022-10-16T00:50:10;14.70;99.90
39847;DHT22;25517;52.422;10.782;2022-10-16T00:52:41;14.70;99.90
39847;DHT22;25517;52.422;10.782;2022-10-16T00:55:09;14.60;99.90
39847;DHT22;25517;52.422;10.782;2022-10-16T00:57:35;14.60;99.90
39847;DHT22;25517;52.422;10.782;2022-10-16T01:00:04;14.60;99.90
39847;DHT22;25517;52.422;10.782;2022-10-16T01:02:30;14.50;99.90
39847;DHT22;25517;52.422;10.782;2022-10-16T01:04:55;14.50;99.90
39847;DHT22;25517;52.422;10.782;2022-10-16T01:07:33;14.50;99.90
39847;DHT22;25517;52.422;10.782;2022-10-16T01:10:51;14.50;99.90
39847;DHT22;25517;52.422;10.782;2022-10-16T01:13:03;14.50;99.90
39847;DHT22;25517;52.422;10.782;2022-10-16T01:18:16;14.50;99.90
39847;DHT22;25517;52.422;10.782;2022-10-16T01:21:06;14.50;99.90
39847;DHT22;25517;52.422;10.782;2022-10-16T01:29:33;14.40;99.90
39847;DHT22;25517;52.422;10.782;2022-10-16T01:32:00;14.40;99.90
39847;DHT22;25517;52.422;10.782;2022-10-16T01:34:37;14.40;99.90
39847;DHT22;25517;52.422;10.782;2022-10-16T01:37:11;14.40;99.90
39847;DHT22;25517;52.422;10.782;2022-10-16T01:39:39;14.30;99.90
39847;DHT22;25517;52.422;10.782;2022-10-16T01:42:18;14.30;99.90
39847;DHT22;25517;52.422;10.782;2022-10-16T01:44:46;14.30;99.90
39847;DHT22;25517;52.422;10.782;2022-10-16T01:47:13;14.30;99.90
39847;DHT22;25517;52.422;10.782;2022-10-16T01:49:41;14.30;99.90
39847;DHT22;25517;52.422;10.782;2022-10-16T01:52:10;14.20;99.90
39847;DHT22;25517;52.422;10.782;2022-10-16T01:54:40;14.20;99.90
39847;DHT22;25517;52.422;10.782;2022-10-16T01:57:07;14.10;99.90
39847;DHT22;25517;52.422;10.782;2022-10-16T01:59:39;14.10;99.90
39847;DHT22;25517;52.422;10.782;2022-10-16T02:02:07;14.10;99.90
39847;DHT22;25517;52.422;10.782;2022-10-16T02:04:36;14.10;99.90
39847;DHT22;25517;52.422;10.782;2022-10-16T02:07:02;14.10;99.90
39847;DHT22;25517;52.422;10.782;2022-10-16T02:09:30;14.10;99.90
39847;DHT22;25517;52.422;10.782;2022-10-16T02:12:00;14.10;99.90
39847;DHT22;25517;52.422;10.782;2022-10-16T02:14:28;14.00;99.90
39847;DHT22;25517;52.422;10.782;2022-10-16T02:16:54;14.00;99.90
39847;DHT22;25517;52.422;10.782;2022-10-16T02:19:19;14.00;99.90
39847;DHT22;25517;52.422;10.782;2022-10-16T02:21:58;14.00;99.90
39847;DHT22;25517;52.422;10.782;2022-10-16T02:27:40;14.00;99.90
39847;DHT22;25517;52.422;10.782;2022-10-16T02:30:17;14.00;99.90
39847;DHT22;25517;52.422;10.782;2022-10-16T02:32:46;14.00;99.90
39847;DHT22;25517;52.422;10.782;2022-10-16T02:35:13;14.00;99.90
39847;DHT22;25517;52.422;10.782;2022-10-16T02:37:41;14.00;99.90
39847;DHT22;25517;52.422;10.782;2022-10-16T02:40:07;14.00;99.90
39847;DHT22;25517;52.422;10.782;2022-10-16T02:42:36;14.00;99.90
39847;DHT22;25517;52.422;10.782;2022-10-16T02:45:03;14.00;99.90
39847;DHT22;25517;52.422;10.782;2022-10-16T02:47:29;14.00;99.90
39847;DHT22;25517;52.422;10.782;2022-10-16T02:49:54;14.00;99.90
39847;DHT22;25517;52.422;10.782;2022-10-16T02:52:20;14.00;99.90
39847;DHT22;25517;52.422;10.782;2022-10-16T02:54:45;14.10;99.90
39847;DHT22;25517;52.422;10.782;2022-10-16T02:57:11;14.10;99.90
39847;DHT22;25517;52.422;10.782;2022-10-16T02:59:37;14.10;99.90
39847;DHT22;25517;52.422;10.782;2022-10-16T03:02:03;14.10;99.90
39847;DHT22;25517;52.422;10.782;2022-10-16T03:04:28;14.10;99.90
39847;DHT22;25517;52.422;10.782;2022-10-16T03:06:54;14.10;99.90
39847;DHT22;25517;52.422;10.782;2022-10-16T03:09:19;14.10;99.90
39847;DHT22;25517;52.422;10.782;2022-10-16T03:11:44;14.10;99.90
39847;DHT22;25517;52.422;10.782;2022-10-16T03:14:10;14.10;99.90
39847;DHT22;25517;52.422;10.782;2022-10-16T03:16:35;14.10;99.90
39847;DHT22;25517;52.422;10.782;2022-10-16T03:19:01;14.10;99.90
39847;DHT22;25517;52.422;10.782;2022-10-16T03:21:27;14.10;99.90
39847;DHT22;25517;52.422;10.782;2022-10-16T03:23:52;14.10;99.90
39847;DHT22;25517;52.422;10.782;2022-10-16T03:26:18;14.10;99.90
39847;DHT22;25517;52.422;10.782;2022-10-16T03:28:43;14.10;99.90
39847;DHT22;25517;52.422;10.782;2022-10-16T03:31:09;14.10;99.90
39847;DHT22;25517;52.422;10.782;2022-10-16T03:33:34;14.10;99.90
39847;DHT22;25517;52.422;10.782;2022-10-16T03:36:00;14.00;99.90
39847;DHT22;25517;52.422;10.782;2022-10-16T03:38:25;14.00;99.90
39847;DHT22;25517;52.422;10.782;2022-10-16T03:40:51;13.90;99.90
39847;DHT22;25517;52.422;10.782;2022-10-16T03:43:16;13.90;99.90
39847;DHT22;25517;52.422;10.782;2022-10-16T03:45:42;13.90;99.90
39847;DHT22;25517;52.422;10.782;2022-10-16T03:48:07;13.90;99.90
39847;DHT22;25517;52.422;10.782;2022-10-16T03:50:33;13.90;99.90
39847;DHT22;25517;52.422;10.782;2022-10-16T03:52:58;13.80;99.90
39847;DHT22;25517;52.422;10.782;2022-10-16T03:55:24;13.80;99.90
39847;DHT22;25517;52.422;10.782;2022-10-16T03:57:49;13.80;99.90
39847;DHT22;25517;52.422;10.782;2022-10-16T04:00:15;13.80;99.90
39847;DHT22;25517;52.422;10.782;2022-10-16T04:02:40;13.80;99.90
39847;DHT22;25517;52.422;10.782;2022-10-16T04:05:06;13.80;99.90
39847;DHT22;25517;52.422;10.782;2022-10-16T04:07:32;13.80;99.90
39847;DHT22;25517;52.422;10.782;2022-10-16T04:09:57;13.80;99.90
39847;DHT22;25517;52.422;10.782;2022-10-16T04:12:25;13.80;99.90
39847;DHT22;25517;52.422;10.782;2022-10-16T04:14:50;13.80;99.90
39847;DHT22;25517;52.422;10.782;2022-10-16T04:17:16;13.90;99.90
39847;DHT22;25517;52.422;10.782;2022-10-16T04:19:42;13.90;99.90
39847;DHT22;25517;52.422;10.782;2022-10-16T04:22:07;13.90;99.90
39847;DHT22;25517;52.422;10.782;2022-10-16T04:24:33;13.90;99.90
39847;DHT22;25517;52.422;10.782;2022-10-16T04:26:58;13.90;99.90
39847;DHT22;25517;52.422;10.782;2022-10-16T04:29:23;13.90;99.90
39847;DHT22;25517;52.422;10.782;2022-10-16T04:31:49;13.80;99.90
39847;DHT22;25517;52.422;10.782;2022-10-16T04:34:15;13.80;99.90
39847;DHT22;25517;52.422;10.782;2022-10-16T04:36:40;13.80;99.90
39847;DHT22;25517;52.422;10.782;2022-10-16T04:39:05;13.80;99.90
39847;DHT22;25517;52.422;10.782;2022-10-16T04:41:31;13.80;99.90
39847;DHT22;25517;52.422;10.782;2022-10-16T04:43:56;13.70;99.90
39847;DHT22;25517;52.422;10.782;2022-10-16T04:46:22;13.70;99.90
39847;DHT22;25517;52.422;10.782;2022-10-16T04:48:47;13.70;99.90
39847;DHT22;25517;52.422;10.782;2022-10-16T04:51:13;13.70;99.90
39847;DHT22;25517;52.422;10.782;2022-10-16T04:53:39;13.70;99.90
39847;DHT22;25517;52.422;10.782;2022-10-16T04:56:04;13.70;99.90
39847;DHT22;25517;52.422;10.782;2022-10-16T04:58:30;13.60;99.90
39847;DHT22;25517;52.422;10.782;2022-10-16T05:00:55;13.60;99.90
39847;DHT22;25517;52.422;10.782;2022-10-16T05:03:21;13.60;99.90
39847;DHT22;25517;52.422;10.782;2022-10-16T05:05:46;13.50;99.90
39847;DHT22;25517;52.422;10.782;2022-10-16T05:08:16;13.60;99.90
39847;DHT22;25517;52.422;10.782;2022-10-16T05:10:43;13.60;99.90
39847;DHT22;25517;52.422;10.782;2022-10-16T05:13:09;13.60;99.90
39847;DHT22;25517;52.422;10.782;2022-10-16T05:15:35;13.60;99.90
39847;DHT22;25517;52.422;10.782;2022-10-16T05:18:00;13.60;99.90
39847;DHT22;25517;52.422;10.782;2022-10-16T05:20:26;13.60;99.90
39847;DHT22;25517;52.422;10.782;2022-10-16T05:22:51;13.50;99.90
39847;DHT22;25517;52.422;10.782;2022-10-16T05:25:17;13.50;99.90
39847;DHT22;25517;52.422;10.782;2022-10-16T05:27:42;13.50;99.90
39847;DHT22;25517;52.422;10.782;2022-10-16T05:30:08;13.50;99.90
39847;DHT22;25517;52.422;10.782;2022-10-16T05:32:34;13.60;99.90
39847;DHT22;25517;52.422;10.782;2022-10-16T05:34:59;13.60;99.90
39847;DHT22;25517;52.422;10.782;2022-10-16T05:37:25;13.60;99.90
39847;DHT22;25517;52.422;10.782;2022-10-16T05:39:52;13.70;99.90
39847;DHT22;25517;52.422;10.782;2022-10-16T05:42:17;13.60;99.90
39847;DHT22;25517;52.422;10.782;2022-10-16T05:44:43;13.60;99.90
39847;DHT22;25517;52.422;10.782;2022-10-16T05:47:09;13.60;99.90
39847;DHT22;25517;52.422;10.782;2022-10-16T05:49:36;13.60;99.90
39847;DHT22;25517;52.422;10.782;2022-10-16T05:52:01;13.60;99.90
39847;DHT22;25517;52.422;10.782;2022-10-16T05:54:27;13.60;99.90
39847;DHT22;25517;52.422;10.782;2022-10-16T05:56:52;13.60;99.90
39847;DHT22;25517;52.422;10.782;2022-10-16T05:59:18;13.60;99.90
39847;DHT22;25517;52.422;10.782;2022-10-16T06:01:43;13.60;99.90
39847;DHT22;25517;52.422;10.782;2022-10-16T06:04:09;13.60;99.90
39847;DHT22;25517;52.422;10.782;2022-10-16T06:06:34;13.50;99.90
39847;DHT22;25517;52.422;10.782;2022-10-16T06:09:01;13.50;99.90
39847;DHT22;25517;52.422;10.782;2022-10-16T06:11:29;13.50;99.90
39847;DHT22;25517;52.422;10.782;2022-10-16T06:13:57;13.60;99.90
39847;DHT22;25517;52.422;10.782;2022-10-16T06:16:24;13.60;99.90
39847;DHT22;25517;52.422;10.782;2022-10-16T06:18:54;13.60;99.90
39847;DHT22;25517;52.422;10.782;2022-10-16T06:21:21;13.60;99.90
39847;DHT22;25517;52.422;10.782;2022-10-16T06:23:47;13.60;99.90
39847;DHT22;25517;52.422;10.782;2022-10-16T06:26:16;13.70;99.90
39847;DHT22;25517;52.422;10.782;2022-10-16T06:28:42;13.70;99.90
39847;DHT22;25517;52.422;10.782;2022-10-16T06:31:09;13.70;99.90
39847;DHT22;25517;52.422;10.782;2022-10-16T06:33:35;13.70;99.90
39847;DHT22;25517;52.422;10.782;2022-10-16T06:36:12;13.70;99.90
39847;DHT22;25517;52.422;10.782;2022-10-16T06:38:38;13.80;99.90
39847;DHT22;25517;52.422;10.782;2022-10-16T06:41:04;13.80;99.90
39847;DHT22;25517;52.422;10.782;2022-10-16T06:43:30;13.80;99.90
39847;DHT22;25517;52.422;10.782;2022-10-16T06:46:04;13.80;99.90
39847;DHT22;25517;52.422;10.782;2022-10-16T06:48:30;13.90;99.90
39847;DHT22;25517;52.422;10.782;2022-10-16T06:51:09;13.80;99.90
39847;DHT22;25517;52.422;10.782;2022-10-16T06:53:36;13.90;99.90
39847;DHT22;25517;52.422;10.782;2022-10-16T06:58:34;13.90;99.90
39847;DHT22;25517;52.422;10.782;2022-10-16T07:00:59;14.00;99.90
39847;DHT22;25517;52.422;10.782;2022-10-16T07:03:25;14.10;99.90
39847;DHT22;25517;52.422;10.782;2022-10-16T07:05:50;14.10;99.90
39847;DHT22;25517;52.422;10.782;2022-10-16T07:08:16;14.10;99.90
39847;DHT22;25517;52.422;10.782;2022-10-16T07:10:41;14.10;99.90
39847;DHT22;25517;52.422;10.782;2022-10-16T07:13:06;14.20;99.90
39847;DHT22;25517;52.422;10.782;2022-10-16T07:15:33;14.20;99.90
39847;DHT22;25517;52.422;10.782;2022-10-16T07:17:59;14.30;99.90
39847;DHT22;25517;52.422;10.782;2022-10-16T07:20:24;14.30;99.90
39847;DHT22;25517;52.422;10.782;2022-10-16T07:22:50;14.40;99.90
39847;DHT22;25517;52.422;10.782;2022-10-16T07:25:16;14.50;99.90
39847;DHT22;25517;52.422;10.782;2022-10-16T07:27:41;14.60;99.90
39847;DHT22;25517;52.422;10.782;2022-10-16T07:30:07;14.70;99.90
39847;DHT22;25517;52.422;10.782;2022-10-16T07:32:33;14.70;99.90
39847;DHT22;25517;52.422;10.782;2022-10-16T07:34:58;14.80;99.90
39847;DHT22;25517;52.422;10.782;2022-10-16T07:37:24;14.80;99.90
39847;DHT22;25517;52.422;10.782;2022-10-16T07:39:49;14.90;99.90
39847;DHT22;25517;52.422;10.782;2022-10-16T07:42:15;14.90;99.90
39847;DHT22;25517;52.422;10.782;2022-10-16T07:44:40;14.90;99.90
39847;DHT22;25517;52.422;10.782;2022-10-16T07:47:06;15.00;99.90
39847;DHT22;25517;52.422;10.782;2022-10-16T07:49:31;15.10;99.90
39847;DHT22;25517;52.422;10.782;2022-10-16T07:51:57;15.20;99.90
39847;DHT22;25517;52.422;10.782;2022-10-16T07:54:22;15.30;99.90
39847;DHT22;25517;52.422;10.782;2022-10-16T07:56:48;15.40;99.90
39847;DHT22;25517;52.422;10.782;2022-10-16T07:59:13;15.50;99.90
39847;DHT22;25517;52.422;10.782;2022-10-16T08:01:39;15.70;99.90
39847;DHT22;25517;52.422;10.782;2022-10-16T08:04:05;15.70;99.90
39847;DHT22;25517;52.422;10.782;2022-10-16T08:06:36;15.80;99.90
39847;DHT22;25517;52.422;10.782;2022-10-16T08:09:02;15.80;99.90
39847;DHT22;25517;52.422;10.782;2022-10-16T08:11:28;15.90;99.90
39847;DHT22;25517;52.422;10.782;2022-10-16T08:13:53;16.00;99.90
39847;DHT22;25517;52.422;10.782;2022-10-16T08:16:19;16.00;99.90
39847;DHT22;25517;52.422;10.782;2022-10-16T08:18:45;16.20;99.90
39847;DHT22;25517;52.422;10.782;2022-10-16T08:21:16;16.40;99.90
39847;DHT22;25517;52.422;10.782;2022-10-16T08:23:42;16.60;99.90
39847;DHT22;25517;52.422;10.782;2022-10-16T08:26:09;16.80;99.90
39847;DHT22;25517;52.422;10.782;2022-10-16T08:28:35;16.90;99.90
39847;DHT22;25517;52.422;10.782;2022-10-16T08:31:14;17.10;99.90
39847;DHT22;25517;52.422;10.782;2022-10-16T08:33:42;17.00;99.90
39847;DHT22;25517;52.422;10.782;2022-10-16T08:36:09;16.90;99.90
39847;DHT22;25517;52.422;10.782;2022-10-16T08:38:35;16.90;99.90
39847;DHT22;25517;52.422;10.782;2022-10-16T08:46:40;17.10;99.90
39847;DHT22;25517;52.422;10.782;2022-10-16T08:49:11;17.30;99.90
39847;DHT22;25517;52.422;10.782;2022-10-16T08:51:38;17.60;99.90
39847;DHT22;25517;52.422;10.782;2022-10-16T08:54:08;17.80;99.90
39847;DHT22;25517;52.422;10.782;2022-10-16T08:56:37;18.10;99.90
39847;DHT22;25517;52.422;10.782;2022-10-16T08:59:06;18.40;99.90
39847;DHT22;25517;52.422;10.782;2022-10-16T09:01:40;18.50;99.90
39847;DHT22;25517;52.422;10.782;2022-10-16T09:12:28;19.10;99.90
39847;DHT22;25517;52.422;10.782;2022-10-16T09:15:17;19.40;99.90
39847;DHT22;25517;52.422;10.782;2022-10-16T09:18:11;19.70;99.90
39847;DHT22;25517;52.422;10.782;2022-10-16T09:20:40;21.40;99.90
39847;DHT22;25517;52.422;10.782;2022-10-16T09:23:17;22.10;99.90
39847;DHT22;25517;52.422;10.782;2022-10-16T09:25:45;23.40;97.80
39847;DHT22;25517;52.422;10.782;2022-10-16T09:28:13;23.90;95.00
39847;DHT22;25517;52.422;10.782;2022-10-16T09:30:39;24.50;93.30
39847;DHT22;25517;52.422;10.782;2022-10-16T09:33:05;24.50;92.60
39847;DHT22;25517;52.422;10.782;2022-10-16T09:35:39;24.00;92.90
39847;DHT22;25517;52.422;10.782;2022-10-16T09:38:05;23.20;93.30
39847;DHT22;25517;52.422;10.782;2022-10-16T09:40:33;22.50;94.70
39847;DHT22;25517;52.422;10.782;2022-10-16T09:43:25;21.70;95.50
39847;DHT22;25517;52.422;10.782;2022-10-16T09:45:55;20.80;97.40
39847;DHT22;25517;52.422;10.782;2022-10-16T09:48:21;20.20;98.40
39847;DHT22;25517;52.422;10.782;2022-10-16T09:51:02;19.90;99.70
39847;DHT22;25517;52.422;10.782;2022-10-16T09:53:46;20.30;99.50
39847;DHT22;25517;52.422;10.782;2022-10-16T09:56:24;20.60;99.00
39847;DHT22;25517;52.422;10.782;2022-10-16T09:58:58;20.90;99.30
39847;DHT22;25517;52.422;10.782;2022-10-16T10:01:36;22.50;97.20
39847;DHT22;25517;52.422;10.782;2022-10-16T10:04:03;24.30;94.00
39847;DHT22;25517;52.422;10.782;2022-10-16T10:06:40;24.90;91.50
39847;DHT22;25517;52.422;10.782;2022-10-16T10:11:54;27.30;87.50
39847;DHT22;25517;52.422;10.782;2022-10-16T10:14:40;27.80;83.30
39847;DHT22;25517;52.422;10.782;2022-10-16T10:17:21;28.40;79.50
39847;DHT22;25517;52.422;10.782;2022-10-16T10:19:55;28.90;75.50
39847;DHT22;25517;52.422;10.782;2022-10-16T10:22:43;29.20;73.30
39847;DHT22;25517;52.422;10.782;2022-10-16T10:30:22;27.90;75.70
39847;DHT22;25517;52.422;10.782;2022-10-16T10:35:50;28.50;70.60
39847;DHT22;25517;52.422;10.782;2022-10-16T10:38:20;26.20;75.80
39847;DHT22;25517;52.422;10.782;2022-10-16T10:40:56;26.40;75.70
39847;DHT22;25517;52.422;10.782;2022-10-16T10:45:52;29.00;71.20
39847;DHT22;25517;52.422;10.782;2022-10-16T10:48:23;29.50;67.60
39847;DHT22;25517;52.422;10.782;2022-10-16T10:50:51;29.00;67.80
39847;DHT22;25517;52.422;10.782;2022-10-16T10:53:25;27.50;70.80
39847;DHT22;25517;52.422;10.782;2022-10-16T10:55:59;26.70;71.60
39847;DHT22;25517;52.422;10.782;2022-10-16T11:03:46;25.20;76.00
39847;DHT22;25517;52.422;10.782;2022-10-16T11:06:28;24.50;77.30
39847;DHT22;25517;52.422;10.782;2022-10-16T11:09:12;24.00;78.60
39847;DHT22;25517;52.422;10.782;2022-10-16T11:11:41;24.00;78.80
39847;DHT22;25517;52.422;10.782;2022-10-16T11:14:11;23.50;79.70
39847;DHT22;25517;52.422;10.782;2022-10-16T11:16:42;22.90;82.60
39847;DHT22;25517;52.422;10.782;2022-10-16T11:21:59;22.30;82.70
39847;DHT22;25517;52.422;10.782;2022-10-16T11:24:34;22.10;82.80
39847;DHT22;25517;52.422;10.782;2022-10-16T11:27:02;22.20;82.60
39847;DHT22;25517;52.422;10.782;2022-10-16T11:29:29;21.80;80.70
39847;DHT22;25517;52.422;10.782;2022-10-16T11:32:06;23.00;80.80
39847;DHT22;25517;52.422;10.782;2022-10-16T11:34:37;23.90;77.80
39847;DHT22;25517;52.422;10.782;2022-10-16T11:37:23;25.10;72.40
39847;DHT22;25517;52.422;10.782;2022-10-16T11:39:50;26.70;70.00
39847;DHT22;25517;52.422;10.782;2022-10-16T11:45:44;27.60;67.30
39847;DHT22;25517;52.422;10.782;2022-10-16T11:48:02;27.40;66.20
39847;DHT22;25517;52.422;10.782;2022-10-16T11:50:35;27.70;63.50
39847;DHT22;25517;52.422;10.782;2022-10-16T11:53:13;28.00;64.60
39847;DHT22;25517;52.422;10.782;2022-10-16T11:55:42;29.10;61.00
39847;DHT22;25517;52.422;10.782;2022-10-16T11:58:27;28.90;62.80
39847;DHT22;25517;52.422;10.782;2022-10-16T12:01:59;28.60;62.90
39847;DHT22;25517;52.422;10.782;2022-10-16T12:04:06;28.30;64.50
39847;DHT22;25517;52.422;10.782;2022-10-16T12:06:37;27.50;65.50
39847;DHT22;25517;52.422;10.782;2022-10-16T12:09:05;25.90;67.40
39847;DHT22;25517;52.422;10.782;2022-10-16T12:11:38;25.60;68.30
39847;DHT22;25517;52.422;10.782;2022-10-16T12:14:16;25.40;70.80
39847;DHT22;25517;52.422;10.782;2022-10-16T12:19:17;23.60;73.50
39847;DHT22;25517;52.422;10.782;2022-10-16T12:21:43;23.40;74.30
39847;DHT22;25517;52.422;10.782;2022-10-16T12:24:20;23.10;75.50
39847;DHT22;25517;52.422;10.782;2022-10-16T12:26:46;22.50;78.20
39847;DHT22;25517;52.422;10.782;2022-10-16T12:29:54;22.70;77.50
39847;DHT22;25517;52.422;10.782;2022-10-16T12:32:00;23.00;77.40
39847;DHT22;25517;52.422;10.782;2022-10-16T12:34:27;23.20;76.40
39847;DHT22;25517;52.422;10.782;2022-10-16T12:36:53;23.50;75.10
39847;DHT22;25517;52.422;10.782;2022-10-16T12:39:22;23.20;74.00
39847;DHT22;25517;52.422;10.782;2022-10-16T12:41:53;23.60;74.80
39847;DHT22;25517;52.422;10.782;2022-10-16T12:44:25;23.90;73.50
39847;DHT22;25517;52.422;10.782;2022-10-16T12:46:53;24.00;73.80
39847;DHT22;25517;52.422;10.782;2022-10-16T12:51:53;24.10;73.50
39847;DHT22;25517;52.422;10.782;2022-10-16T12:54:34;24.10;72.70
39847;DHT22;25517;52.422;10.782;2022-10-16T12:57:04;24.30;73.40
39847;DHT22;25517;52.422;10.782;2022-10-16T12:59:42;23.70;72.20
39847;DHT22;25517;52.422;10.782;2022-10-16T13:07:40;23.40;73.40
39847;DHT22;25517;52.422;10.782;2022-10-16T13:18:24;22.60;75.00
39847;DHT22;25517;52.422;10.782;2022-10-16T13:20:56;22.60;74.80
39847;DHT22;25517;52.422;10.782;2022-10-16T13:23:40;22.50;74.40
39847;DHT22;25517;52.422;10.782;2022-10-16T13:28:51;22.50;74.90
39847;DHT22;25517;52.422;10.782;2022-10-16T13:31:20;22.90;75.80
39847;DHT22;25517;52.422;10.782;2022-10-16T13:33:47;23.20;73.80
39847;DHT22;25517;52.422;10.782;2022-10-16T13:36:20;23.30;73.10
39847;DHT22;25517;52.422;10.782;2022-10-16T13:38:47;23.20;74.00
39847;DHT22;25517;52.422;10.782;2022-10-16T13:41:16;23.00;74.20
39847;DHT22;25517;52.422;10.782;2022-10-16T13:43:45;22.90;74.20
39847;DHT22;25517;52.422;10.782;2022-10-16T13:46:13;22.80;74.40
39847;DHT22;25517;52.422;10.782;2022-10-16T13:48:38;22.80;73.20
39847;DHT22;25517;52.422;10.782;2022-10-16T13:51:05;22.40;73.70
39847;DHT22;25517;52.422;10.782;2022-10-16T13:53:32;22.00;75.20
39847;DHT22;25517;52.422;10.782;2022-10-16T13:55:58;21.90;76.20
39847;DHT22;25517;52.422;10.782;2022-10-16T13:58:25;21.70;76.30
39847;DHT22;25517;52.422;10.782;2022-10-16T14:00:54;21.60;76.70
39847;DHT22;25517;52.422;10.782;2022-10-16T14:03:21;21.50;76.20
39847;DHT22;25517;52.422;10.782;2022-10-16T14:05:47;21.50;77.80
39847;DHT22;25517;52.422;10.782;2022-10-16T14:08:13;21.60;78.00
39847;DHT22;25517;52.422;10.782;2022-10-16T14:10:38;21.70;77.30
39847;DHT22;25517;52.422;10.782;2022-10-16T14:13:05;21.50;75.80
39847;DHT22;25517;52.422;10.782;2022-10-16T14:15:31;21.40;78.80
39847;DHT22;25517;52.422;10.782;2022-10-16T14:17:58;21.10;77.20
39847;DHT22;25517;52.422;10.782;2022-10-16T14:20:27;21.00;78.40
39847;DHT22;25517;52.422;10.782;2022-10-16T14:23:00;20.70;79.00
39847;DHT22;25517;52.422;10.782;2022-10-16T14:25:28;20.50;79.30
39847;DHT22;25517;52.422;10.782;2022-10-16T14:28:01;20.30;80.80
39847;DHT22;25517;52.422;10.782;2022-10-16T14:30:27;20.10;80.80
39847;DHT22;25517;52.422;10.782;2022-10-16T14:32:57;20.10;81.90
39847;DHT22;25517;52.422;10.782;2022-10-16T14:37:51;20.30;83.10
39847;DHT22;25517;52.422;10.782;2022-10-16T14:40:16;20.30;82.40
39847;DHT22;25517;52.422;10.782;2022-10-16T14:42:43;20.20;81.70
39847;DHT22;25517;52.422;10.782;2022-10-16T14:45:09;20.10;82.40
39847;DHT22;25517;52.422;10.782;2022-10-16T14:47:35;20.00;81.30
39847;DHT22;25517;52.422;10.782;2022-10-16T14:50:02;20.00;81.30
39847;DHT22;25517;52.422;10.782;2022-10-16T14:52:27;19.90;82.50
39847;DHT22;25517;52.422;10.782;2022-10-16T14:54:53;19.80;82.40
39847;DHT22;25517;52.422;10.782;2022-10-16T14:57:26;19.80;83.40
39847;DHT22;25517;52.422;10.782;2022-10-16T14:59:52;19.80;82.50
39847;DHT22;25517;52.422;10.782;2022-10-16T15:02:28;19.80;83.10
39847;DHT22;25517;52.422;10.782;2022-10-16T15:04:54;19.70;83.10
39847;DHT22;25517;52.422;10.782;2022-10-16T15:07:20;19.80;83.50
39847;DHT22;25517;52.422;10.782;2022-10-16T15:09:46;19.70;83.20
39847;DHT22;25517;52.422;10.782;2022-10-16T15:12:11;19.60;84.00
39847;DHT22;25517;52.422;10.782;2022-10-16T15:14:36;19.50;84.30
39847;DHT22;25517;52.422;10.782;2022-10-16T15:17:02;19.50;85.20
39847;DHT22;25517;52.422;10.782;2022-10-16T15:19:27;19.50;85.10
39847;DHT22;25517;52.422;10.782;2022-10-16T15:21:53;19.40;84.90
39847;DHT22;25517;52.422;10.782;2022-10-16T15:24:18;19.30;85.90
39847;DHT22;25517;52.422;10.782;2022-10-16T15:26:44;19.30;87.10
39847;DHT22;25517;52.422;10.782;2022-10-16T15:29:11;19.20;87.60
39847;DHT22;25517;52.422;10.782;2022-10-16T15:31:36;19.20;86.40
39847;DHT22;25517;52.422;10.782;2022-10-16T15:34:02;19.10;86.10
39847;DHT22;25517;52.422;10.782;2022-10-16T15:36:33;19.00;88.20
39847;DHT22;25517;52.422;10.782;2022-10-16T15:39:02;18.90;88.40
39847;DHT22;25517;52.422;10.782;2022-10-16T15:41:27;18.90;88.20
39847;DHT22;25517;52.422;10.782;2022-10-16T15:43:52;18.70;88.40
39847;DHT22;25517;52.422;10.782;2022-10-16T15:46:19;18.70;88.60
39847;DHT22;25517;52.422;10.782;2022-10-16T15:48:44;18.60;88.00
39847;DHT22;25517;52.422;10.782;2022-10-16T15:51:10;18.60;88.70
39847;DHT22;25517;52.422;10.782;2022-10-16T15:53:35;18.50;88.90
39847;DHT22;25517;52.422;10.782;2022-10-16T15:56:02;18.40;89.70
39847;DHT22;25517;52.422;10.782;2022-10-16T15:58:27;18.40;89.60
39847;DHT22;25517;52.422;10.782;2022-10-16T16:00:54;18.30;90.50
39847;DHT22;25517;52.422;10.782;2022-10-16T16:03:19;18.20;90.50
39847;DHT22;25517;52.422;10.782;2022-10-16T16:05:45;18.10;90.20
39847;DHT22;25517;52.422;10.782;2022-10-16T16:08:10;18.00;91.00
39847;DHT22;25517;52.422;10.782;2022-10-16T16:10:35;17.80;91.50
39847;DHT22;25517;52.422;10.782;2022-10-16T16:13:01;17.70;92.40
39847;DHT22;25517;52.422;10.782;2022-10-16T16:15:26;17.50;91.90
39847;DHT22;25517;52.422;10.782;2022-10-16T16:17:51;17.30;92.70
39847;DHT22;25517;52.422;10.782;2022-10-16T16:20:17;17.20;92.60
39847;DHT22;25517;52.422;10.782;2022-10-16T16:22:42;17.20;92.70
39847;DHT22;25517;52.422;10.782;2022-10-16T16:25:08;17.10;93.00
39847;DHT22;25517;52.422;10.782;2022-10-16T16:27:33;17.10;93.50
39847;DHT22;25517;52.422;10.782;2022-10-16T16:30:00;17.00;93.90
39847;DHT22;25517;52.422;10.782;2022-10-16T16:32:25;16.90;94.20
39847;DHT22;25517;52.422;10.782;2022-10-16T16:34:50;16.80;94.50
39847;DHT22;25517;52.422;10.782;2022-10-16T16:37:16;16.70;94.80
39847;DHT22;25517;52.422;10.782;2022-10-16T16:39:41;16.60;95.50